createdAt,value
2023-04-22T00:02:14.732Z,3.08
2023-04-22T00:04:42.943Z,3.38
2023-04-22T00:07:13.186Z,3.25
2023-04-22T00:09:41.250Z,3.17
2023-04-22T00:12:11.966Z,3.08
2023-04-22T00:14:40.051Z,3.30
2023-04-22T00:17:08.786Z,3.38
2023-04-22T00:19:37.493Z,3.42
2023-04-22T00:22:06.231Z,3.13
2023-04-22T00:24:36.111Z,3.28
2023-04-22T00:27:04.422Z,3.03
2023-04-22T00:29:32.950Z,3.30
2023-04-22T00:32:01.018Z,3.20
2023-04-22T00:34:29.556Z,3.60
2023-04-22T00:36:58.281Z,2.80
2023-04-22T00:39:26.396Z,2.83
2023-04-22T00:41:57.235Z,2.88
2023-04-22T00:44:26.525Z,2.92
2023-04-22T00:46:55.165Z,2.90
2023-04-22T00:49:24.146Z,2.90
2023-04-22T00:51:52.205Z,2.88
2023-04-22T00:54:20.811Z,3.13
2023-04-22T00:56:49.373Z,3.35
2023-04-22T00:59:19.369Z,2.78
2023-04-22T01:01:48.181Z,3.08
2023-04-22T01:04:16.606Z,3.00
2023-04-22T01:06:45.427Z,3.17
2023-04-22T01:09:14.363Z,3.05
2023-04-22T01:11:43.795Z,3.15
2023-04-22T01:14:11.867Z,3.30
2023-04-22T01:16:43.999Z,3.35
2023-04-22T01:19:13.434Z,2.97
2023-04-22T01:21:45.822Z,3.10
2023-04-22T01:24:15.901Z,2.90
2023-04-22T01:26:44.324Z,2.90
2023-04-22T01:29:13.054Z,3.03
2023-04-22T01:31:41.418Z,3.20
2023-04-22T01:34:10.020Z,2.75
2023-04-22T01:36:38.624Z,2.85
2023-04-22T01:39:07.913Z,2.53
2023-04-22T01:41:38.211Z,2.60
2023-04-22T01:44:06.270Z,2.58
2023-04-22T01:46:35.312Z,3.40
2023-04-22T01:49:03.970Z,2.78
2023-04-22T01:51:32.910Z,2.97
2023-04-22T01:54:03.935Z,2.78
2023-04-22T01:56:32.470Z,2.97
2023-04-22T01:59:02.060Z,2.85
2023-04-22T02:01:30.714Z,3.17
2023-04-22T02:03:58.837Z,3.30
2023-04-22T02:06:27.955Z,3.13
2023-04-22T02:08:56.503Z,3.10
2023-04-22T02:11:24.567Z,3.13
2023-04-22T02:13:53.095Z,3.05
2023-04-22T02:16:22.623Z,3.00
2023-04-22T02:18:51.309Z,2.88
2023-04-22T02:21:19.388Z,3.00
2023-04-22T02:23:48.009Z,2.92
2023-04-22T02:26:16.542Z,2.72
2023-04-22T02:28:45.084Z,3.15
2023-04-22T02:31:13.726Z,3.00
2023-04-22T02:33:43.149Z,3.10
2023-04-22T02:36:11.923Z,3.13
2023-04-22T02:38:40.076Z,3.08
2023-04-22T02:41:08.652Z,3.58
2023-04-22T02:43:37.172Z,3.38
2023-04-22T02:46:05.279Z,3.08
2023-04-22T02:48:33.833Z,3.40
2023-04-22T02:51:03.342Z,3.20
2023-04-22T02:53:31.889Z,2.85
2023-04-22T02:56:00.563Z,3.53
2023-04-22T02:58:29.202Z,3.40
2023-04-22T03:00:58.157Z,3.45
2023-04-22T03:03:26.736Z,3.00
2023-04-22T03:05:55.530Z,2.80
2023-04-22T03:08:26.909Z,3.17
2023-04-22T03:10:55.428Z,3.10
2023-04-22T03:13:23.464Z,3.00
2023-04-22T03:15:52.001Z,3.25
2023-04-22T03:18:20.081Z,3.05
2023-04-22T03:20:48.740Z,3.10
2023-04-22T03:23:17.349Z,3.15
2023-04-22T03:25:46.831Z,3.00
2023-04-22T03:28:15.796Z,3.38
2023-04-22T03:30:43.892Z,2.90
2023-04-22T03:33:13.360Z,3.15
2023-04-22T03:35:41.447Z,2.65
2023-04-22T03:38:09.991Z,2.97
2023-04-22T03:40:38.600Z,2.92
2023-04-22T03:43:08.567Z,3.13
2023-04-22T03:45:37.045Z,3.15
2023-04-22T03:48:05.625Z,3.33
2023-04-22T03:50:34.949Z,2.92
2023-04-22T03:53:02.985Z,2.90
2023-04-22T03:55:31.502Z,3.22
2023-04-22T03:58:00.361Z,3.08
2023-04-22T04:00:30.311Z,3.20
2023-04-22T04:02:59.009Z,3.13
2023-04-22T04:05:27.758Z,3.15
2023-04-22T04:07:56.603Z,2.90
2023-04-22T04:10:25.154Z,3.08
2023-04-22T04:12:53.187Z,2.97
2023-04-22T04:15:21.924Z,3.10
2023-04-22T04:17:52.151Z,3.17
2023-04-22T04:20:20.509Z,3.17
2023-04-22T04:22:49.048Z,2.97
2023-04-22T04:25:18.347Z,3.00
2023-04-22T04:27:46.925Z,3.38
2023-04-22T04:30:16.406Z,3.13
2023-04-22T04:32:46.166Z,3.20
2023-04-22T04:35:16.548Z,2.92
2023-04-22T04:37:45.644Z,3.10
2023-04-22T04:40:14.232Z,3.22
2023-04-22T04:42:42.481Z,2.83
2023-04-22T04:45:11.753Z,3.03
2023-04-22T04:47:40.352Z,2.85
2023-04-22T04:50:09.784Z,3.22
2023-04-22T04:52:39.221Z,2.95
2023-04-22T04:55:08.228Z,3.30
2023-04-22T04:57:38.382Z,2.90
2023-04-22T05:00:08.873Z,3.13
2023-04-22T05:02:37.824Z,2.80
2023-04-22T05:05:06.723Z,3.03
2023-04-22T05:07:35.356Z,3.05
2023-04-22T05:10:05.552Z,3.15
2023-04-22T05:12:34.251Z,3.45
2023-04-22T05:15:02.841Z,2.63
2023-04-22T05:17:31.721Z,2.85
2023-04-22T05:19:59.796Z,3.33
2023-04-22T05:22:27.921Z,3.08
2023-04-22T05:24:56.042Z,2.72
2023-04-22T05:27:26.168Z,3.38
2023-04-22T05:29:54.719Z,3.25
2023-04-22T05:32:23.570Z,2.97
2023-04-22T05:34:51.672Z,3.20
2023-04-22T05:37:20.295Z,3.10
2023-04-22T05:39:48.347Z,2.83
2023-04-22T05:42:16.883Z,2.47
2023-04-22T05:44:46.318Z,3.28
2023-04-22T05:47:14.924Z,3.05
2023-04-22T05:49:43.459Z,2.60
2023-04-22T05:52:12.024Z,3.00
2023-04-22T05:54:40.691Z,2.63
2023-04-22T05:57:09.329Z,2.67
2023-04-22T05:59:37.951Z,2.53
2023-04-22T06:02:07.565Z,2.95
2023-04-22T06:04:37.771Z,3.08
2023-04-22T06:07:06.453Z,3.25
2023-04-22T06:09:35.032Z,2.83
2023-04-22T06:12:03.617Z,3.25
2023-04-22T06:14:31.645Z,2.53
2023-04-22T06:17:00.222Z,2.90
2023-04-22T06:19:30.340Z,2.80
2023-04-22T06:21:58.399Z,2.85
2023-04-22T06:24:26.925Z,2.97
2023-04-22T06:26:55.021Z,3.00
2023-04-22T06:29:23.561Z,2.55
2023-04-22T06:31:52.200Z,2.78
2023-04-22T06:34:20.352Z,3.10
2023-04-22T06:36:50.263Z,3.40
2023-04-22T06:39:18.782Z,3.22
2023-04-22T06:41:46.825Z,3.22
2023-04-22T06:44:15.357Z,3.50
2023-04-22T06:46:43.462Z,2.97
2023-04-22T06:49:11.987Z,2.67
2023-04-22T06:51:40.035Z,3.08
2023-04-22T06:54:09.909Z,2.40
2023-04-22T06:56:38.629Z,3.38
2023-04-22T06:59:07.757Z,3.20
2023-04-22T07:01:36.371Z,5.45
2023-04-22T07:04:04.573Z,3.40
2023-04-22T07:06:33.099Z,3.20
2023-04-22T07:09:01.474Z,2.90
2023-04-22T07:11:31.519Z,2.80
2023-04-22T07:13:59.801Z,2.40
2023-04-22T07:16:28.592Z,3.55
2023-04-22T07:18:57.304Z,3.03
2023-04-22T07:21:25.407Z,2.88
2023-04-22T07:23:53.483Z,3.28
2023-04-22T07:26:21.842Z,3.05
2023-04-22T07:28:51.492Z,3.10
2023-04-22T07:31:19.596Z,3.20
2023-04-22T07:33:48.082Z,2.97
2023-04-22T07:36:16.243Z,3.33
2023-04-22T07:38:44.318Z,3.10
2023-04-22T07:41:12.410Z,2.92
2023-04-22T07:43:40.472Z,3.20
2023-04-22T07:46:09.975Z,3.03
2023-04-22T07:48:38.110Z,3.40
2023-04-22T07:51:06.604Z,2.75
2023-04-22T07:53:34.690Z,2.95
2023-04-22T07:56:03.579Z,3.25
2023-04-22T07:58:31.638Z,2.97
2023-04-22T08:00:59.698Z,3.28
2023-04-22T08:03:29.427Z,3.38
2023-04-22T08:05:58.378Z,3.00
2023-04-22T08:08:27.042Z,3.20
2023-04-22T08:10:55.093Z,2.67
2023-04-22T08:13:23.169Z,3.38
2023-04-22T08:15:51.305Z,2.97
2023-04-22T08:18:19.492Z,3.35
2023-04-22T08:20:48.989Z,2.83
2023-04-22T08:23:17.052Z,3.13
2023-04-22T08:25:45.217Z,2.95
2023-04-22T08:28:13.272Z,2.97
2023-04-22T08:30:41.394Z,3.00
2023-04-22T08:33:09.571Z,2.88
2023-04-22T08:35:37.969Z,2.90
2023-04-22T08:38:07.444Z,2.97
2023-04-22T08:40:36.166Z,3.05
2023-04-22T08:43:05.153Z,2.85
2023-04-22T08:45:33.711Z,2.65
2023-04-22T08:48:03.249Z,3.13
2023-04-22T08:50:32.953Z,2.13
2023-04-22T08:53:01.067Z,2.60
2023-04-22T08:55:31.070Z,2.88
2023-04-22T08:58:01.609Z,2.60
2023-04-22T09:00:29.840Z,2.22
2023-04-22T09:03:00.973Z,2.70
2023-04-22T09:05:30.539Z,2.40
2023-04-22T09:07:59.055Z,2.75
2023-04-22T09:10:28.469Z,2.50
2023-04-22T09:12:58.417Z,2.53
2023-04-22T09:15:27.804Z,2.53
2023-04-22T09:17:56.836Z,2.67
2023-04-22T09:20:28.926Z,2.90
2023-04-22T09:22:59.095Z,3.00
2023-04-22T09:25:28.885Z,2.22
2023-04-22T09:28:00.136Z,2.63
2023-04-22T09:30:30.035Z,2.80
2023-04-22T09:32:59.559Z,2.80
2023-04-22T09:35:29.231Z,2.33
2023-04-22T09:37:57.505Z,2.50
2023-04-22T09:40:26.044Z,2.58
2023-04-22T09:42:56.061Z,2.50
2023-04-22T09:45:33.340Z,2.50
2023-04-22T09:48:04.306Z,2.88
2023-04-22T09:50:32.366Z,2.58
2023-04-22T09:53:02.733Z,2.55
2023-04-22T09:55:33.210Z,2.53
2023-04-22T09:58:07.912Z,2.38
2023-04-22T10:00:41.188Z,2.30
2023-04-22T10:03:10.734Z,2.17
2023-04-22T10:05:39.371Z,2.45
2023-04-22T10:08:08.725Z,2.50
2023-04-22T10:10:37.871Z,2.10
2023-04-22T10:13:06.904Z,2.15
2023-04-22T10:15:38.848Z,2.20
2023-04-22T10:18:09.754Z,1.95
2023-04-22T10:20:39.003Z,2.40
2023-04-22T10:23:12.978Z,2.10
2023-04-22T10:25:41.451Z,2.42
2023-04-22T10:28:11.116Z,2.10
2023-04-22T10:30:41.136Z,2.30
2023-04-22T10:33:39.948Z,2.00
2023-04-22T10:36:16.571Z,1.88
2023-04-22T10:39:22.206Z,1.90
2023-04-22T10:42:10.488Z,2.30
2023-04-22T10:44:52.814Z,1.95
2023-04-22T10:47:30.555Z,2.10
2023-04-22T10:50:21.202Z,2.05
2023-04-22T10:52:51.671Z,2.00
2023-04-22T10:55:20.307Z,1.92
2023-04-22T10:57:50.015Z,1.80
2023-04-22T11:00:53.285Z,1.80
2023-04-22T11:03:30.135Z,1.48
2023-04-22T11:06:18.248Z,1.90
2023-04-22T11:08:47.540Z,1.70
2023-04-22T11:11:17.685Z,1.60
2023-04-22T11:13:47.513Z,1.73
2023-04-22T11:16:15.729Z,1.73
2023-04-22T11:18:48.796Z,1.83
2023-04-22T11:21:17.281Z,1.58
2023-04-22T11:23:52.337Z,1.80
2023-04-22T11:26:33.708Z,1.83
2023-04-22T11:29:01.819Z,1.70
2023-04-22T11:31:30.022Z,1.50
2023-04-22T11:34:01.787Z,1.58
2023-04-22T11:36:30.040Z,1.63
2023-04-22T11:38:58.290Z,1.60
2023-04-22T11:41:26.411Z,1.40
2023-04-22T11:43:55.615Z,1.58
2023-04-22T11:46:30.412Z,1.80
2023-04-22T11:49:18.271Z,1.70
2023-04-22T11:51:56.431Z,1.65
2023-04-22T11:54:32.537Z,1.40
2023-04-22T11:57:04.419Z,1.27
2023-04-22T11:59:32.530Z,1.40
2023-04-22T12:02:00.697Z,1.50
2023-04-22T12:04:30.152Z,1.35
2023-04-22T12:06:58.529Z,1.42
2023-04-22T12:09:26.850Z,1.25
2023-04-22T12:11:54.949Z,1.40
2023-04-22T12:14:32.628Z,1.48
2023-04-22T12:17:04.298Z,1.50
2023-04-22T12:19:33.754Z,1.30
2023-04-22T12:22:02.231Z,1.50
2023-04-22T12:24:31.126Z,1.35
2023-04-22T12:26:59.684Z,1.30
2023-04-22T12:29:33.122Z,1.20
2023-04-22T12:32:01.573Z,1.17
2023-04-22T12:34:29.651Z,1.90
2023-04-22T12:36:59.836Z,1.50
2023-04-22T12:39:27.926Z,1.42
2023-04-22T12:41:55.985Z,1.52
2023-04-22T12:44:25.160Z,1.38
2023-04-22T12:46:53.656Z,1.50
2023-04-22T12:49:21.854Z,1.35
2023-04-22T12:51:50.145Z,1.23
2023-04-22T12:54:20.448Z,1.38
2023-04-22T12:56:49.401Z,1.17
2023-04-22T12:59:17.466Z,1.40
2023-04-22T13:01:45.648Z,1.50
2023-04-22T13:04:13.933Z,1.40
2023-04-22T13:06:44.244Z,1.20
2023-04-22T13:09:13.014Z,1.50
2023-04-22T13:11:42.497Z,1.23
2023-04-22T13:14:11.427Z,1.35
2023-04-22T13:16:39.733Z,1.45
2023-04-22T13:19:07.951Z,1.83
2023-04-22T13:21:36.308Z,1.58
2023-04-22T13:24:04.469Z,1.30
2023-04-22T13:26:32.569Z,1.30
2023-04-22T13:29:02.887Z,1.60
2023-04-22T13:31:31.179Z,1.45
2023-04-22T13:33:59.257Z,2.17
2023-04-22T13:36:27.854Z,1.40
2023-04-22T13:38:56.066Z,1.52
2023-04-22T13:41:24.092Z,1.50
2023-04-22T13:43:54.405Z,1.25
2023-04-22T13:46:23.962Z,1.30
2023-04-22T13:48:52.113Z,1.75
2023-04-22T13:51:20.265Z,1.35
2023-04-22T13:53:48.337Z,1.38
2023-04-22T13:56:16.440Z,1.60
2023-04-22T13:58:44.519Z,1.50
2023-04-22T14:01:12.620Z,1.42
2023-04-22T14:03:42.196Z,1.75
2023-04-22T14:06:10.888Z,1.30
2023-04-22T14:08:39.536Z,1.48
2023-04-22T14:11:08.745Z,2.30
2023-04-22T14:13:37.321Z,1.88
2023-04-22T14:16:09.759Z,1.77
2023-04-22T14:18:39.465Z,1.77
2023-04-22T14:21:10.392Z,1.60
2023-04-22T14:23:39.573Z,1.42
2023-04-22T14:26:08.529Z,1.35
2023-04-22T14:28:39.048Z,1.38
2023-04-22T14:31:07.365Z,1.33
2023-04-22T14:33:35.593Z,1.40
2023-04-22T14:36:03.702Z,1.50
2023-04-22T14:38:33.174Z,1.50
2023-04-22T14:41:01.216Z,1.65
2023-04-22T14:43:29.834Z,1.27
2023-04-22T14:45:59.094Z,1.27
2023-04-22T14:48:30.837Z,1.23
2023-04-22T14:50:59.879Z,1.42
2023-04-22T14:53:28.181Z,10.15
2023-04-22T14:55:57.655Z,2.15
2023-04-22T14:58:27.083Z,1.70
2023-04-22T15:00:55.149Z,1.50
2023-04-22T15:03:23.911Z,1.80
2023-04-22T15:05:52.973Z,1.30
2023-04-22T15:08:21.626Z,1.30
2023-04-22T15:10:50.155Z,1.50
2023-04-22T15:13:20.015Z,1.23
2023-04-22T15:15:48.614Z,1.35
2023-04-22T15:18:17.209Z,1.20
2023-04-22T15:20:45.545Z,1.17
2023-04-22T15:23:14.061Z,1.23
2023-04-22T15:25:42.664Z,1.20
2023-04-22T15:28:11.237Z,1.15
2023-04-22T15:30:40.743Z,1.45
2023-04-22T15:33:09.311Z,1.20
2023-04-22T15:35:37.880Z,1.70
2023-04-22T15:38:06.933Z,1.13
2023-04-22T15:40:35.453Z,1.20
2023-04-22T15:43:04.085Z,1.38
2023-04-22T15:45:32.193Z,1.42
2023-04-22T15:48:02.167Z,1.60
2023-04-22T15:50:30.283Z,1.40
2023-04-22T15:52:58.484Z,1.30
2023-04-22T15:55:26.597Z,1.40
2023-04-22T15:57:55.170Z,1.33
2023-04-22T16:00:23.744Z,1.40
2023-04-22T16:02:55.855Z,1.33
2023-04-22T16:05:25.982Z,1.50
2023-04-22T16:07:55.006Z,1.50
2023-04-22T16:10:23.745Z,1.55
2023-04-22T16:12:51.907Z,1.50
2023-04-22T16:15:20.569Z,1.15
2023-04-22T16:17:49.320Z,1.58
2023-04-22T16:20:17.869Z,1.55
2023-04-22T16:22:47.280Z,1.55
2023-04-22T16:25:15.670Z,1.50
2023-04-22T16:27:43.707Z,1.55
2023-04-22T16:30:15.608Z,1.50
2023-04-22T16:32:44.288Z,1.60
2023-04-22T16:35:12.804Z,1.40
2023-04-22T16:37:41.435Z,1.30
2023-04-22T16:40:11.682Z,1.58
2023-04-22T16:42:40.234Z,1.40
2023-04-22T16:45:08.963Z,1.58
2023-04-22T16:47:37.501Z,1.30
2023-04-22T16:50:06.369Z,1.30
2023-04-22T16:52:35.125Z,1.50
2023-04-22T16:55:03.845Z,1.67
2023-04-22T16:57:33.254Z,1.67
2023-04-22T17:00:01.784Z,1.20
2023-04-22T17:02:30.881Z,1.40
2023-04-22T17:05:01.619Z,1.60
2023-04-22T17:07:29.738Z,1.40
2023-04-22T17:09:58.326Z,1.48
2023-04-22T17:12:26.440Z,1.55
2023-04-22T17:14:55.915Z,1.40
2023-04-22T17:17:24.482Z,1.40
2023-04-22T17:19:52.552Z,1.40
2023-04-22T17:22:21.131Z,1.88
2023-04-22T17:24:49.183Z,2.08
2023-04-22T17:27:17.705Z,1.90
2023-04-22T17:29:46.572Z,1.95
2023-04-22T17:32:16.254Z,1.70
2023-04-22T17:34:44.329Z,1.80
2023-04-22T17:37:12.456Z,1.90
2023-04-22T17:39:42.357Z,1.55
2023-04-22T17:42:10.473Z,1.48
2023-04-22T17:44:38.693Z,1.58
2023-04-22T17:47:07.737Z,1.67
2023-04-22T17:49:37.285Z,5.35
2023-04-22T17:52:05.985Z,3.70
2023-04-22T17:54:34.043Z,2.97
2023-04-22T17:57:02.189Z,3.00
2023-04-22T17:59:30.216Z,2.90
2023-04-22T18:02:00.234Z,3.20
2023-04-22T18:04:29.559Z,3.85
2023-04-22T18:06:59.565Z,3.20
2023-04-22T18:09:27.950Z,3.60
2023-04-22T18:11:58.851Z,3.80
2023-04-22T18:14:27.567Z,3.67
2023-04-22T18:16:55.686Z,3.80
2023-04-22T18:19:23.831Z,3.53
2023-04-22T18:21:59.479Z,3.50
2023-04-22T18:24:30.192Z,3.13
2023-04-22T18:26:58.371Z,3.72
2023-04-22T18:29:27.224Z,3.85
2023-04-22T18:31:55.338Z,3.70
2023-04-22T18:34:23.676Z,2.95
2023-04-22T18:36:51.747Z,3.97
2023-04-22T18:39:20.278Z,4.28
2023-04-22T18:41:49.767Z,4.00
2023-04-22T18:44:19.549Z,4.43
2023-04-22T18:46:48.101Z,11.88
2023-04-22T18:49:16.176Z,10.73
2023-04-22T18:51:44.299Z,7.65
2023-04-22T18:54:12.910Z,6.80
2023-04-22T18:56:40.965Z,6.03
2023-04-22T18:59:10.400Z,6.28
2023-04-22T19:01:38.562Z,6.13
2023-04-22T19:04:08.176Z,6.07
2023-04-22T19:06:36.444Z,4.90
2023-04-22T19:09:05.336Z,4.20
2023-04-22T19:11:33.501Z,4.25
2023-04-22T19:14:03.402Z,4.05
2023-04-22T19:16:33.332Z,4.05
2023-04-22T19:19:01.432Z,2.88
2023-04-22T19:21:30.484Z,3.03
2023-04-22T19:23:59.330Z,2.70
2023-04-22T19:26:29.694Z,2.55
2023-04-22T19:28:58.257Z,2.60
2023-04-22T19:31:28.303Z,2.50
2023-04-22T19:34:04.400Z,2.30
2023-04-22T19:36:32.456Z,2.17
2023-04-22T19:39:00.973Z,2.45
2023-04-22T19:41:29.045Z,2.20
2023-04-22T19:43:59.452Z,2.47
2023-04-22T19:46:27.536Z,2.60
2023-04-22T19:48:58.454Z,2.53
2023-04-22T19:51:29.449Z,2.00
2023-04-22T19:54:02.249Z,2.70
2023-04-22T19:56:31.127Z,2.35
2023-04-22T19:59:00.535Z,2.58
2023-04-22T20:01:29.196Z,2.83
2023-04-22T20:03:59.902Z,3.78
2023-04-22T20:06:29.117Z,2.65
2023-04-22T20:08:59.451Z,2.55
2023-04-22T20:11:29.143Z,3.38
2023-04-22T20:13:57.556Z,3.83
2023-04-22T20:16:27.379Z,3.42
2023-04-22T20:18:56.095Z,3.10
2023-04-22T20:21:26.102Z,3.38
2023-04-22T20:23:57.359Z,3.72
2023-04-22T20:26:26.211Z,3.20
2023-04-22T20:28:55.158Z,3.63
2023-04-22T20:31:24.040Z,2.88
2023-04-22T20:33:52.643Z,3.15
2023-04-22T20:36:22.508Z,3.60
2023-04-22T20:38:55.354Z,2.78
2023-04-22T20:41:25.510Z,2.58
2023-04-22T20:43:53.639Z,3.13
2023-04-22T20:46:23.470Z,2.70
2023-04-22T20:48:51.681Z,2.33
2023-04-22T20:51:20.280Z,2.78
2023-04-22T20:53:49.038Z,3.10
2023-04-22T20:56:21.461Z,2.92
2023-04-22T20:58:49.542Z,3.00
2023-04-22T21:01:19.946Z,5.32
2023-04-22T21:03:53.082Z,3.92
2023-04-22T21:06:22.359Z,3.15
2023-04-22T21:08:51.644Z,2.88
2023-04-22T21:11:21.862Z,2.63
2023-04-22T21:13:51.350Z,3.03
2023-04-22T21:16:21.117Z,4.03
2023-04-22T21:18:50.569Z,3.65
2023-04-22T21:21:20.573Z,3.13
2023-04-22T21:23:49.732Z,2.90
2023-04-22T21:26:19.964Z,2.83
2023-04-22T21:28:49.795Z,2.83
2023-04-22T21:31:18.943Z,2.60
2023-04-22T21:33:47.017Z,2.30
2023-04-22T21:36:15.168Z,2.10
2023-04-22T21:38:43.797Z,2.20
2023-04-22T21:41:12.354Z,2.20
2023-04-22T21:43:41.769Z,2.58
2023-04-22T21:46:10.886Z,2.15
2023-04-22T21:48:38.924Z,2.30
2023-04-22T21:51:07.543Z,2.00
2023-04-22T21:53:36.115Z,2.10
2023-04-22T21:56:04.205Z,2.28
2023-04-22T21:58:32.734Z,1.67
2023-04-22T22:01:02.717Z,1.88
2023-04-22T22:03:32.136Z,1.83
2023-04-22T22:06:00.585Z,1.75
2023-04-22T22:08:28.718Z,1.92
2023-04-22T22:10:57.906Z,1.85
2023-04-22T22:13:26.245Z,2.10
2023-04-22T22:15:56.116Z,1.90
2023-04-22T22:18:25.551Z,2.08
2023-04-22T22:20:54.286Z,1.95
2023-04-22T22:23:23.014Z,1.83
2023-04-22T22:25:51.677Z,1.80
2023-04-22T22:28:19.739Z,1.90
2023-04-22T22:30:48.250Z,2.10
2023-04-22T22:33:16.389Z,2.50
2023-04-22T22:35:46.659Z,1.88
2023-04-22T22:38:14.734Z,1.77
2023-04-22T22:40:43.289Z,3.17
2023-04-22T22:43:12.457Z,1.90
2023-04-22T22:45:40.824Z,2.00
2023-04-22T22:48:09.438Z,2.10
2023-04-22T22:50:37.876Z,2.15
2023-04-22T22:53:07.899Z,2.08
2023-04-22T22:55:36.001Z,2.20
2023-04-22T22:58:04.564Z,2.05
2023-04-22T23:00:32.643Z,2.20
2023-04-22T23:03:00.897Z,2.00
2023-04-22T23:05:29.288Z,1.88
2023-04-22T23:07:57.348Z,2.10
2023-04-22T23:10:26.972Z,2.10
2023-04-22T23:12:55.072Z,2.17
2023-04-22T23:15:23.652Z,2.80
2023-04-22T23:17:51.792Z,2.78
2023-04-22T23:20:21.227Z,2.75
2023-04-22T23:22:52.049Z,2.95
2023-04-22T23:25:21.053Z,2.72
2023-04-22T23:27:51.292Z,2.33
2023-04-22T23:30:20.283Z,2.30
2023-04-22T23:32:49.297Z,2.25
2023-04-22T23:35:17.799Z,2.15
2023-04-22T23:37:46.858Z,2.00
2023-04-22T23:40:14.977Z,2.10
2023-04-22T23:42:43.496Z,2.45
2023-04-22T23:45:13.431Z,1.90
2023-04-22T23:47:42.425Z,2.13
2023-04-22T23:50:11.336Z,2.30
2023-04-22T23:52:41.665Z,4.30
2023-04-22T23:55:11.836Z,3.60
2023-04-22T23:57:40.818Z,2.83
